PST,Max TemperatureF,Mean TemperatureF,Min TemperatureF,Max Dew PointF,MeanDew PointF,Min DewpointF,Max Humidity, Mean Humidity, Min Humidity, Max Sea Level PressureIn, Mean Sea Level PressureIn, Min Sea Level PressureIn, Max VisibilityMiles, Mean VisibilityMiles, Min VisibilityMiles, Max Wind SpeedMPH, Mean Wind SpeedMPH, Max Gust SpeedMPH,PrecipitationIn, CloudCover, Events, WindDirDegrees
2011-11-1,51,40,29,30,25,19,76,53,29,30.57,30.47,30.30,10,10,10,15,4,20,0.00,1,,228
2011-11-2,55,42,29,26,20,11,78,49,19,30.54,30.25,29.92,10,10,10,20,9,24,0.00,0,,103
2011-11-3,48,41,33,39,28,18,100,68,36,29.91,29.82,29.74,10,10,10,14,4,15,0.08,3,Rain,250
2011-11-4,43,37,31,38,35,28,100,80,60,29.85,29.76,29.70,10,10,9,16,6,22,0.15,7,Rain,263
2011-11-5,45,37,29,33,29,27,100,77,53,29.89,29.85,29.80,10,8,1,9,3,12,0.00,5,,76
2011-11-6,44,36,28,31,29,27,92,75,57,30.18,30.01,29.90,10,10,9,10,3,14,0.00,2,,100
2011-11-7,40,33,25,33,30,24,92,84,76,30.30,30.26,30.20,10,10,7,8,1,10,0.00,5,,28
2011-11-8,51,40,29,35,32,28,100,77,54,30.40,30.33,30.27,10,9,6,8,2,9,0.00,2,,81
2011-11-9,54,44,34,31,30,28,91,66,41,30.48,30.39,30.29,10,10,10,17,9,161,0.00,1,,91
2011-11-10,54,45,35,33,29,25,75,58,41,30.29,30.15,29.99,10,10,7,12,4,17,0.00,0,Snow,41
2011-11-11,59,46,32,37,30,24,78,53,28,29.98,29.65,29.43,10,9,4,28,7,36,0.05,3,Rain,304
2011-11-12,47,41,34,37,31,26,100,73,45,29.81,29.72,29.57,10,9,6,15,7,22,0.21,6,Rain,212
2011-11-13,54,46,37,36,32,28,85,63,41,29.74,29.69,29.58,10,10,10,26,9,32,T,5,,228
2011-11-14,53,45,37,36,28,19,65,52,38,30.04,29.81,29.71,10,10,6,37,13,52,T,5,Rain,260
2011-11-15,43,34,25,26,22,18,75,61,47,30.38,30.23,30.06,10,10,9,15,3,18,0.00,3,,218
2011-11-16,40,33,25,30,24,21,82,67,52,30.36,30.19,29.85,10,10,10,15,9,17,T,4,,81
2011-11-17,48,43,37,39,31,25,89,64,39,29.84,29.77,29.64,10,10,5,12,11,14,0.15,8,Rain,261
2011-11-18,41,36,30,36,33,28,100,90,79,29.77,29.62,29.56,10,8,0,15,3,18,0.21,7,Rain-Snow,58
2011-11-19,36,32,28,33,30,28,100,91,82,29.96,29.84,29.77,10,7,1,5,2,5,0.06,7,Snow,69
2011-11-20,38,34,29,31,30,28,100,88,76,30.00,29.96,29.90,10,10,6,6,2,6,T,6,,266
2011-11-21,48,39,29,33,31,27,100,77,53,29.95,29.93,29.89,10,10,10,21,6,26,0.00,5,,129
2011-11-22,57,49,40,39,37,33,86,65,43,29.88,29.82,29.76,10,10,10,18,7,25,0.00,7,,184
2011-11-23,64,56,47,37,32,26,61,43,25,29.74,29.64,29.57,10,10,10,23,7,31,0.00,4,,221
2011-11-24,50,45,40,40,38,35,89,77,65,29.86,29.80,29.75,10,10,10,18,7,24,0.01,7,Rain,101
2011-11-25,47,39,30,37,25,21,71,54,37,30.61,30.29,29.81,10,10,10,30,12,37,0.00,1,,247
2011-11-26,51,42,33,26,24,21,69,54,39,30.58,30.50,30.38,10,10,10,23,10,28,0.00,4,,97
2011-11-27,56,48,40,43,26,21,71,49,26,30.31,30.19,30.06,10,10,10,30,11,40,0.01,3,Rain,155
2011-11-28,51,43,34,43,37,32,92,77,61,30.45,30.39,30.27,10,10,10,10,3,14,T,3,,106
2011-11-29,41,36,30,37,34,30,100,93,85,30.42,30.30,30.13,10,6,0,12,2,14,0.00,5,Fog,335
2011-11-30,45,38,31,36,33,28,92,79,65,30.73,30.41,30.17,10,10,10,21,4,25,T,5,Rain,284